createdAt,value
2022-12-03T00:01:41.063Z,99109.88
2022-12-03T00:03:46.268Z,99110.59
2022-12-03T00:05:51.479Z,99106.28
2022-12-03T00:07:56.639Z,99103.88
2022-12-03T00:10:04.227Z,99107.97
2022-12-03T00:12:09.585Z,99105.63
2022-12-03T00:14:15.048Z,99103.06
2022-12-03T00:16:20.095Z,99102.13
2022-12-03T00:18:25.292Z,99106.34
2022-12-03T00:20:30.605Z,99101.34
2022-12-03T00:22:35.857Z,99103.03
2022-12-03T00:24:40.789Z,99098.84
2022-12-03T00:26:48.735Z,99097.19
2022-12-03T00:28:55.198Z,99104.63
2022-12-03T00:31:00.637Z,99100.47
2022-12-03T00:33:05.961Z,99094.78
2022-12-03T00:35:12.029Z,99092.44
2022-12-03T00:37:18.036Z,99091.56
2022-12-03T00:39:23.247Z,99096.44
2022-12-03T00:41:28.987Z,99101.34
2022-12-03T00:43:36.578Z,99102.03
2022-12-03T00:45:41.557Z,99096.25
2022-12-03T00:47:46.517Z,99102.78
2022-12-03T00:49:51.933Z,99106.09
2022-12-03T00:51:57.571Z,99101.22
2022-12-03T00:54:02.548Z,99102.91
2022-12-03T00:56:08.268Z,99096.13
2022-12-03T00:58:13.915Z,99105.97
2022-12-03T01:00:25.284Z,99105.88
2022-12-03T01:02:30.667Z,99104.16
2022-12-03T01:04:35.833Z,99104.22
2022-12-03T01:06:41.813Z,99094.31
2022-12-03T01:08:47.250Z,99104.06
2022-12-03T01:10:52.311Z,99097.47
2022-12-03T01:12:57.969Z,99099.19
2022-12-03T01:15:03.229Z,99096.69
2022-12-03T01:17:12.379Z,99094.19
2022-12-03T01:19:19.588Z,99095.03
2022-12-03T01:21:24.557Z,99095.88
2022-12-03T01:23:29.530Z,99100.03
2022-12-03T01:25:34.954Z,99100.13
2022-12-03T01:27:40.317Z,99101.84
2022-12-03T01:29:45.360Z,99101.00
2022-12-03T01:32:03.153Z,99107.59
2022-12-03T01:34:10.871Z,99095.97
2022-12-03T01:36:15.865Z,99096.75
2022-12-03T01:38:22.879Z,99102.50
2022-12-03T01:40:28.098Z,99099.16
2022-12-03T01:42:38.102Z,99095.00
2022-12-03T01:44:43.992Z,99098.22
2022-12-03T01:46:50.098Z,99095.75
2022-12-03T01:48:58.583Z,99099.16
2022-12-03T01:51:06.630Z,99097.59
2022-12-03T01:53:18.347Z,99089.25
2022-12-03T01:55:26.860Z,99100.00
2022-12-03T01:57:39.597Z,99095.00
2022-12-03T01:59:44.570Z,99095.78
2022-12-03T02:01:49.592Z,99097.47
2022-12-03T02:03:54.876Z,99103.34
2022-12-03T02:05:59.875Z,99098.44
2022-12-03T02:08:33.739Z,99098.41
2022-12-03T02:10:41.250Z,99107.50
2022-12-03T02:12:53.521Z,99100.91
2022-12-03T02:14:58.847Z,99105.81
2022-12-03T02:17:04.534Z,99105.88
2022-12-03T02:19:18.000Z,99105.97
2022-12-03T02:21:33.915Z,99096.91
2022-12-03T02:23:49.455Z,99093.50
2022-12-03T02:25:57.977Z,99094.38
2022-12-03T02:28:04.635Z,99101.00
2022-12-03T02:30:13.359Z,99092.81
2022-12-03T02:32:18.494Z,99094.41
2022-12-03T02:34:39.485Z,99103.44
2022-12-03T02:36:44.534Z,99095.00
2022-12-03T02:38:52.146Z,99102.56
2022-12-03T02:41:06.748Z,99094.31
2022-12-03T02:43:10.591Z,99095.97
2022-12-03T02:45:22.215Z,99095.97
2022-12-03T02:47:28.128Z,99094.19
2022-12-03T02:49:33.231Z,99099.19
2022-12-03T02:51:38.350Z,99105.78
2022-12-03T02:53:47.538Z,99100.75
2022-12-03T02:55:53.819Z,99099.91
2022-12-03T02:58:01.871Z,99097.56
2022-12-03T03:00:09.511Z,99095.94
2022-12-03T03:02:15.751Z,99104.28
2022-12-03T03:04:22.398Z,99102.72
2022-12-03T03:06:28.451Z,99104.22
2022-12-03T03:08:34.347Z,99095.16
2022-12-03T03:10:40.638Z,99101.66
2022-12-03T03:12:46.264Z,99100.88
2022-12-03T03:14:54.177Z,99100.91
2022-12-03T03:16:59.396Z,99102.56
2022-12-03T03:19:05.081Z,99097.56
2022-12-03T03:21:10.810Z,99107.38
2022-12-03T03:23:21.555Z,99105.03
2022-12-03T03:25:26.753Z,99099.09
2022-12-03T03:27:33.602Z,99102.50
2022-12-03T03:29:39.378Z,99099.09
2022-12-03T03:31:51.164Z,99095.94
2022-12-03T03:33:56.282Z,99091.84
2022-12-03T03:36:02.888Z,99087.81
2022-12-03T03:38:09.460Z,99082.88
2022-12-03T03:40:15.135Z,99081.06
2022-12-03T03:42:20.730Z,99077.75
2022-12-03T03:44:25.763Z,99083.63
2022-12-03T03:46:33.523Z,99076.91
2022-12-03T03:48:43.107Z,99086.03
2022-12-03T03:50:48.704Z,99085.97
2022-12-03T03:52:53.929Z,99079.34
2022-12-03T03:54:59.214Z,99077.78
2022-12-03T03:57:04.636Z,99079.38
2022-12-03T03:59:10.759Z,99079.47
2022-12-03T04:01:17.113Z,99073.72
2022-12-03T04:03:22.481Z,99074.56
2022-12-03T04:05:31.301Z,99066.38
2022-12-03T04:07:36.898Z,99065.53
2022-12-03T04:09:41.936Z,99062.16
2022-12-03T04:11:59.399Z,99057.22
2022-12-03T04:14:05.258Z,99063.06
2022-12-03T04:16:10.799Z,99061.38
2022-12-03T04:18:28.395Z,99063.03
2022-12-03T04:20:36.144Z,99056.31
2022-12-03T04:22:41.258Z,99057.09
2022-12-03T04:24:46.272Z,99052.22
2022-12-03T04:27:04.236Z,99048.97
2022-12-03T04:29:06.677Z,99048.22
2022-12-03T04:31:24.111Z,99049.81
2022-12-03T04:33:41.834Z,99049.81
2022-12-03T04:35:49.841Z,99044.84
2022-12-03T04:37:55.148Z,99041.50
2022-12-03T04:40:00.178Z,99039.06
2022-12-03T04:42:02.825Z,99042.38
2022-12-03T04:44:26.381Z,99042.38
2022-12-03T04:46:31.443Z,99041.56
2022-12-03T04:48:36.451Z,99043.19
2022-12-03T04:50:41.438Z,99048.97
2022-12-03T04:52:48.996Z,99045.69
2022-12-03T04:54:54.207Z,99049.81
2022-12-03T04:56:59.559Z,99049.03
2022-12-03T04:59:04.994Z,99044.91
2022-12-03T05:01:10.092Z,99048.28
2022-12-03T05:03:15.106Z,99046.66
2022-12-03T05:05:20.503Z,99043.28
2022-12-03T05:07:25.604Z,99043.34
2022-12-03T05:09:33.213Z,99042.50
2022-12-03T05:11:38.784Z,99046.56
2022-12-03T05:13:43.775Z,99046.56
2022-12-03T05:15:48.756Z,99050.69
2022-12-03T05:17:53.702Z,99043.28
2022-12-03T05:20:11.243Z,99040.03
2022-12-03T05:22:16.211Z,99038.34
2022-12-03T05:24:21.171Z,99041.69
2022-12-03T05:26:28.796Z,99038.47
2022-12-03T05:28:33.804Z,99036.78
2022-12-03T05:30:39.129Z,99038.47
2022-12-03T05:32:44.131Z,99040.97
2022-12-03T05:34:49.185Z,99043.41
2022-12-03T05:36:54.541Z,99037.63
2022-12-03T05:38:59.536Z,99049.97
2022-12-03T05:41:24.790Z,99043.28
2022-12-03T05:43:29.760Z,99045.81
2022-12-03T05:45:37.971Z,99038.31
2022-12-03T05:47:42.980Z,99040.94
2022-12-03T05:49:47.977Z,99034.38
2022-12-03T05:51:58.213Z,99040.09
2022-12-03T05:54:05.116Z,99047.44
2022-12-03T05:56:10.770Z,99044.91
2022-12-03T05:58:16.015Z,99051.47
2022-12-03T06:00:27.043Z,99051.53
2022-12-03T06:02:32.478Z,99049.81
2022-12-03T06:04:38.431Z,99054.75
2022-12-03T06:06:43.433Z,99055.56
2022-12-03T06:08:48.414Z,99056.34
2022-12-03T06:10:53.577Z,99053.88
2022-12-03T06:12:59.150Z,99050.63
2022-12-03T06:15:04.171Z,99049.81
2022-12-03T06:17:12.592Z,99046.44
2022-12-03T06:19:17.809Z,99047.38
2022-12-03T06:21:23.215Z,99051.47
2022-12-03T06:23:28.453Z,99041.56
2022-12-03T06:25:33.457Z,99044.84
2022-12-03T06:27:38.731Z,99052.19
2022-12-03T06:29:43.698Z,99055.59
2022-12-03T06:31:49.056Z,99044.84
2022-12-03T06:33:56.626Z,99045.66
2022-12-03T06:36:01.903Z,99049.75
2022-12-03T06:38:07.122Z,99045.69
2022-12-03T06:40:13.912Z,99045.72
2022-12-03T06:42:19.085Z,99058.88
2022-12-03T06:44:24.481Z,99058.09
2022-12-03T06:46:29.622Z,99053.09
2022-12-03T06:48:34.624Z,99054.81
2022-12-03T06:50:42.231Z,99053.19
2022-12-03T06:52:47.579Z,99051.53
2022-12-03T06:54:52.880Z,99049.00
2022-12-03T06:56:58.160Z,99054.72
2022-12-03T06:59:03.146Z,99051.34
2022-12-03T07:01:08.670Z,99059.66
2022-12-03T07:03:13.689Z,99043.97
2022-12-03T07:05:19.818Z,99058.03
2022-12-03T07:07:27.404Z,99054.75
2022-12-03T07:09:32.432Z,99056.28
2022-12-03T07:11:42.328Z,99052.28
2022-12-03T07:13:47.695Z,99042.47
2022-12-03T07:15:52.723Z,99048.38
2022-12-03T07:17:57.888Z,99046.66
2022-12-03T07:20:04.855Z,99051.59
2022-12-03T07:22:10.660Z,99042.41
2022-12-03T07:24:18.218Z,99053.19
2022-12-03T07:26:23.613Z,99047.38
2022-12-03T07:28:29.081Z,99058.16
2022-12-03T07:30:34.129Z,99054.22
2022-12-03T07:32:39.127Z,99051.69
2022-12-03T07:34:44.960Z,99050.13
2022-12-03T07:36:50.365Z,99050.88
2022-12-03T07:38:55.789Z,99056.72
2022-12-03T07:41:03.387Z,99052.56
2022-12-03T07:43:08.666Z,99053.38
2022-12-03T07:45:14.425Z,99054.16
2022-12-03T07:47:20.252Z,99055.00
2022-12-03T07:49:27.110Z,99053.41
2022-12-03T07:51:32.566Z,99048.47
2022-12-03T07:53:38.958Z,99047.69
2022-12-03T07:55:43.951Z,99052.81
2022-12-03T07:57:51.612Z,99041.22
2022-12-03T07:59:56.629Z,99042.91
2022-12-03T08:02:02.969Z,99048.66
2022-12-03T08:04:08.362Z,99041.25
2022-12-03T08:06:13.416Z,99043.78
2022-12-03T08:08:18.779Z,99049.53
2022-12-03T08:10:24.623Z,99047.97
2022-12-03T08:12:40.533Z,99047.13
2022-12-03T08:14:48.129Z,99051.34
2022-12-03T08:16:53.889Z,99057.09
2022-12-03T08:18:59.806Z,99051.28
2022-12-03T08:21:05.277Z,99058.72
2022-12-03T08:23:16.757Z,99052.00
2022-12-03T08:25:26.086Z,99052.91
2022-12-03T08:27:31.528Z,99056.25
2022-12-03T08:29:36.928Z,99053.78
2022-12-03T08:31:45.606Z,99048.03
2022-12-03T08:33:53.076Z,99053.69
2022-12-03T08:35:58.354Z,99054.00
2022-12-03T08:38:14.948Z,99049.09
2022-12-03T08:40:28.324Z,99045.88
2022-12-03T08:42:42.487Z,99050.72
2022-12-03T08:44:47.831Z,99046.47
2022-12-03T08:47:03.011Z,99040.88
2022-12-03T08:49:08.588Z,99042.47
2022-12-03T08:51:24.046Z,99047.53
2022-12-03T08:53:35.056Z,99048.38
2022-12-03T08:55:47.786Z,99047.53
2022-12-03T08:57:53.348Z,99052.53
2022-12-03T09:00:04.116Z,99040.97
2022-12-03T09:02:29.327Z,99045.91
2022-12-03T09:04:41.637Z,99043.53
2022-12-03T09:06:47.675Z,99044.44
2022-12-03T09:08:52.814Z,99048.53
2022-12-03T09:10:57.835Z,99047.63
2022-12-03T09:13:03.227Z,99044.41
2022-12-03T09:15:12.047Z,99041.09
2022-12-03T09:17:19.645Z,99042.97
2022-12-03T09:19:25.070Z,99042.91
2022-12-03T09:21:30.070Z,99040.38
2022-12-03T09:23:35.611Z,99044.56
2022-12-03T09:25:40.610Z,99045.38
2022-12-03T09:27:45.913Z,99046.41
2022-12-03T09:29:51.190Z,99041.53
2022-12-03T09:31:56.570Z,99044.75
2022-12-03T09:34:04.373Z,99044.09
2022-12-03T09:36:09.636Z,99048.19
2022-12-03T09:38:14.835Z,99045.72
2022-12-03T09:40:20.580Z,99039.03
2022-12-03T09:42:25.849Z,99049.91
2022-12-03T09:44:33.168Z,99031.66
2022-12-03T09:46:38.969Z,99030.97
2022-12-03T09:48:44.446Z,99031.75
2022-12-03T09:50:52.994Z,99031.88
2022-12-03T09:53:03.391Z,99035.13
2022-12-03T09:55:18.313Z,99025.22
2022-12-03T09:57:24.790Z,99026.03
2022-12-03T09:59:33.359Z,99025.31
2022-12-03T10:01:39.165Z,99020.28
2022-12-03T10:03:50.449Z,99016.13
2022-12-03T10:05:58.792Z,99008.75
2022-12-03T10:08:09.433Z,99013.84
2022-12-03T10:10:21.319Z,99003.94
2022-12-03T10:12:27.549Z,99005.56
2022-12-03T10:14:33.938Z,99009.75
2022-12-03T10:16:40.452Z,99008.75
2022-12-03T10:18:50.372Z,99012.03
2022-12-03T10:20:58.090Z,99009.63
2022-12-03T10:23:03.058Z,99002.19
2022-12-03T10:25:12.845Z,99005.63
2022-12-03T10:27:27.295Z,98995.91
2022-12-03T10:29:36.304Z,98987.72
2022-12-03T10:31:42.109Z,99002.47
2022-12-03T10:33:49.579Z,99002.41
2022-12-03T10:35:57.280Z,98999.94
2022-12-03T10:38:04.993Z,98995.88
2022-12-03T10:40:14.232Z,99000.81
2022-12-03T10:42:21.849Z,98996.59
2022-12-03T10:44:30.955Z,98994.13
2022-12-03T10:46:36.179Z,98994.06
2022-12-03T10:48:41.717Z,98990.81
2022-12-03T10:50:53.608Z,98991.66
2022-12-03T10:53:01.293Z,98990.91
2022-12-03T10:55:06.478Z,98979.41
2022-12-03T10:57:13.171Z,98987.84
2022-12-03T10:59:22.770Z,98976.16
2022-12-03T11:01:29.447Z,98974.44
2022-12-03T11:03:38.964Z,98976.78
2022-12-03T11:05:45.047Z,98973.50
2022-12-03T11:07:50.425Z,98971.03
2022-12-03T11:09:59.225Z,98969.53
2022-12-03T11:12:08.674Z,98966.09
2022-12-03T11:14:19.607Z,98965.25
2022-12-03T11:19:47.159Z,98962.69
2022-12-03T11:22:44.795Z,98962.63
2022-12-03T11:24:49.767Z,98951.09
2022-12-03T11:27:23.938Z,98948.63
2022-12-03T11:29:58.687Z,98942.91
2022-12-03T11:32:04.198Z,98942.91
2022-12-03T11:34:51.499Z,98943.00
2022-12-03T11:37:28.346Z,98943.94
2022-12-03T11:40:28.349Z,98946.41
2022-12-03T11:42:42.891Z,98949.50
2022-12-03T11:44:47.855Z,98946.16
2022-12-03T11:46:53.215Z,98955.19
2022-12-03T11:49:01.381Z,98949.31
2022-12-03T11:51:06.754Z,98949.50
2022-12-03T11:53:19.995Z,98941.09
2022-12-03T11:55:34.365Z,98942.66
2022-12-03T11:57:43.294Z,98939.44
2022-12-03T12:00:01.792Z,98931.25
2022-12-03T12:02:23.071Z,98935.28
2022-12-03T12:04:35.812Z,98942.59
2022-12-03T12:06:47.499Z,98934.44
2022-12-03T12:09:03.981Z,98924.63
2022-12-03T12:11:20.725Z,98927.88
2022-12-03T12:13:57.304Z,98909.53
2022-12-03T12:16:04.202Z,98911.19
2022-12-03T12:18:38.618Z,98909.81
2022-12-03T12:20:43.803Z,98912.09
2022-12-03T12:22:48.817Z,98903.00
2022-12-03T12:24:55.767Z,98898.84
2022-12-03T12:27:03.072Z,98894.66
2022-12-03T12:29:10.605Z,98892.94
2022-12-03T12:31:16.097Z,98883.84
2022-12-03T12:33:26.192Z,98888.09
2022-12-03T12:35:33.708Z,98888.06
2022-12-03T12:37:50.132Z,98883.94
2022-12-03T12:40:01.270Z,98879.72
2022-12-03T12:42:27.446Z,98880.53
2022-12-03T12:44:35.388Z,98881.28
2022-12-03T12:46:47.690Z,98885.31
2022-12-03T12:48:57.964Z,98884.56
2022-12-03T12:51:14.717Z,98886.25
2022-12-03T12:53:26.111Z,98877.97
2022-12-03T12:55:31.248Z,98875.28
2022-12-03T12:57:37.417Z,98882.81
2022-12-03T12:59:45.044Z,98879.78
2022-12-03T13:01:52.642Z,98879.06
2022-12-03T13:03:59.565Z,98878.09
2022-12-03T13:06:05.487Z,98874.69
2022-12-03T13:08:24.877Z,98878.69
2022-12-03T13:10:47.454Z,98886.22
2022-12-03T13:12:52.451Z,98882.88
2022-12-03T13:15:03.632Z,98882.09
2022-12-03T13:17:18.993Z,98886.22
2022-12-03T13:19:26.571Z,98881.31
2022-12-03T13:21:41.008Z,98885.28
2022-12-03T13:23:45.971Z,98888.56
2022-12-03T13:26:09.835Z,98885.28
2022-12-03T13:28:19.042Z,98882.03
2022-12-03T13:30:26.843Z,98884.44
2022-12-03T13:32:34.918Z,98887.72
2022-12-03T13:34:39.905Z,98884.28
2022-12-03T13:36:52.000Z,98890.16
2022-12-03T13:39:02.031Z,98882.72
2022-12-03T13:41:07.138Z,98883.50
2022-12-03T13:43:14.072Z,98885.91
2022-12-03T13:45:38.504Z,98893.31
2022-12-03T13:47:44.131Z,98895.00
2022-12-03T13:49:56.348Z,98885.91
2022-12-03T13:52:01.557Z,98888.47
2022-12-03T13:54:11.630Z,98880.94
2022-12-03T13:56:29.227Z,98885.03
2022-12-03T13:58:34.201Z,98878.53
2022-12-03T14:00:42.529Z,98881.75
2022-12-03T14:02:47.591Z,98880.06
2022-12-03T14:04:58.401Z,98880.84
2022-12-03T14:07:05.108Z,98884.19
2022-12-03T14:09:10.357Z,98890.06
2022-12-03T14:11:35.975Z,98883.56
2022-12-03T14:13:40.960Z,98886.00
2022-12-03T14:15:48.552Z,98894.22
2022-12-03T14:17:53.552Z,98894.13
2022-12-03T14:20:00.429Z,98887.50
2022-12-03T14:22:07.833Z,98890.84
2022-12-03T14:24:13.111Z,98884.19
2022-12-03T14:26:18.158Z,98892.34
2022-12-03T14:28:23.308Z,98889.13
2022-12-03T14:30:30.622Z,98881.59
2022-12-03T14:32:38.322Z,98884.09
2022-12-03T14:34:43.312Z,98877.47
2022-12-03T14:36:48.372Z,98879.03
2022-12-03T14:38:53.541Z,98875.63
2022-12-03T14:40:58.483Z,98882.25
2022-12-03T14:43:03.486Z,98888.88
2022-12-03T14:45:10.494Z,98887.22
2022-12-03T14:47:17.690Z,98883.97
2022-12-03T14:49:25.230Z,98886.59
2022-12-03T14:51:30.192Z,98885.66
2022-12-03T14:53:35.129Z,98890.63
2022-12-03T14:55:40.164Z,98884.00
2022-12-03T14:57:45.127Z,98881.56
2022-12-03T14:59:50.115Z,98885.66
2022-12-03T15:01:55.554Z,98879.78
2022-12-03T15:04:00.719Z,98872.34
2022-12-03T15:06:09.506Z,98872.38
2022-12-03T15:08:14.553Z,98869.00
2022-12-03T15:10:19.718Z,98869.03
2022-12-03T15:12:25.220Z,98869.09
2022-12-03T15:14:30.533Z,98867.41
2022-12-03T15:16:35.654Z,98868.16
2022-12-03T15:18:40.706Z,98868.19
2022-12-03T15:20:46.049Z,98864.06
2022-12-03T15:22:53.676Z,98858.25
2022-12-03T15:25:02.465Z,98866.50
2022-12-03T15:27:08.159Z,98857.34
2022-12-03T15:29:13.511Z,98856.53
2022-12-03T15:31:18.646Z,98862.22
2022-12-03T15:33:23.757Z,98861.41
2022-12-03T15:35:28.702Z,98851.47
2022-12-03T15:37:35.207Z,98850.69
2022-12-03T15:39:48.432Z,98855.66
2022-12-03T15:41:54.027Z,98855.72
2022-12-03T15:44:02.189Z,98859.00
2022-12-03T15:46:07.422Z,98858.94
2022-12-03T15:48:14.063Z,98855.75
2022-12-03T15:50:20.013Z,98859.13
2022-12-03T15:52:25.049Z,98854.09
2022-12-03T15:54:31.060Z,98859.78
2022-12-03T15:56:38.577Z,98858.03
2022-12-03T15:58:44.411Z,98861.31
2022-12-03T16:00:49.690Z,98855.63
2022-12-03T16:02:55.623Z,98858.88
2022-12-03T16:05:00.607Z,98867.19
2022-12-03T16:07:05.805Z,98866.41
2022-12-03T16:09:10.957Z,98869.66
2022-12-03T16:11:15.943Z,98857.22
2022-12-03T16:13:23.883Z,98867.09
2022-12-03T16:15:28.843Z,98873.75
2022-12-03T16:17:33.863Z,98877.16
2022-12-03T16:19:38.867Z,98879.56
2022-12-03T16:21:43.839Z,98877.00
2022-12-03T16:23:48.914Z,98873.66
2022-12-03T16:25:54.290Z,98878.63
2022-12-03T16:27:59.594Z,98871.22
2022-12-03T16:30:10.011Z,98870.34
2022-12-03T16:32:15.018Z,98872.00
2022-12-03T16:34:20.365Z,98867.81
2022-12-03T16:36:25.446Z,98863.72
2022-12-03T16:38:31.418Z,98868.75
2022-12-03T16:40:36.413Z,98865.38
2022-12-03T16:42:41.463Z,98874.41
2022-12-03T16:45:16.423Z,98867.88
2022-12-03T16:47:29.345Z,98870.44
2022-12-03T16:49:37.149Z,98871.19
2022-12-03T16:51:42.107Z,98874.56
2022-12-03T16:53:47.057Z,98872.03
2022-12-03T16:55:52.011Z,98876.28
2022-12-03T16:57:57.332Z,98872.06
2022-12-03T17:00:02.937Z,98874.63
2022-12-03T17:02:08.223Z,98873.81
2022-12-03T17:04:15.773Z,98869.66
2022-12-03T17:06:20.759Z,98865.50
2022-12-03T17:08:27.207Z,98863.09
2022-12-03T17:10:32.217Z,98865.53
2022-12-03T17:13:01.121Z,98860.59
2022-12-03T17:15:02.130Z,98867.16
2022-12-03T17:17:07.090Z,98860.56
2022-12-03T17:19:14.751Z,98854.78
2022-12-03T17:21:19.811Z,98862.22
2022-12-03T17:23:24.759Z,98862.19
2022-12-03T17:25:30.451Z,98850.69
2022-12-03T17:27:35.504Z,98852.28
2022-12-03T17:29:40.456Z,98847.38
2022-12-03T17:31:46.009Z,98847.34
2022-12-03T17:33:52.678Z,98848.13
2022-12-03T17:36:00.204Z,98844.00
2022-12-03T17:38:05.271Z,98841.50
2022-12-03T17:40:14.430Z,98842.34
2022-12-03T17:42:19.382Z,98840.63
2022-12-03T17:44:24.400Z,98848.88
2022-12-03T17:46:29.369Z,98839.03
2022-12-03T17:48:34.722Z,98837.38
2022-12-03T17:50:40.088Z,98837.44
2022-12-03T17:52:47.665Z,98822.59
2022-12-03T17:55:10.889Z,98827.47
2022-12-03T17:57:18.222Z,98829.16
2022-12-03T17:59:23.189Z,98828.38
2022-12-03T18:01:28.309Z,98829.97
2022-12-03T18:03:33.526Z,98830.75
2022-12-03T18:05:38.639Z,98832.50
2022-12-03T18:07:47.160Z,98830.81
2022-12-03T18:09:52.774Z,98830.84
2022-12-03T18:11:58.652Z,98829.22
2022-12-03T18:14:03.632Z,98829.25
2022-12-03T18:16:09.582Z,98829.19
2022-12-03T18:18:14.768Z,98827.47
2022-12-03T18:20:20.412Z,98825.88
2022-12-03T18:22:27.926Z,98826.72
2022-12-03T18:24:35.576Z,98829.22
2022-12-03T18:26:42.711Z,98820.94
2022-12-03T18:28:47.658Z,98824.19
2022-12-03T18:30:53.194Z,98821.72
2022-12-03T18:32:58.161Z,98820.09
2022-12-03T18:35:03.209Z,98821.00
2022-12-03T18:37:08.440Z,98826.78
2022-12-03T18:39:26.627Z,98822.59
2022-12-03T18:41:35.908Z,98829.16
2022-12-03T18:43:43.724Z,98823.38
2022-12-03T18:45:48.711Z,98825.84
2022-12-03T18:47:54.786Z,98825.78
2022-12-03T18:50:00.187Z,98820.81
2022-12-03T18:52:05.233Z,98827.44
2022-12-03T18:54:15.445Z,98824.16
2022-12-03T18:56:21.487Z,98830.72
2022-12-03T18:58:29.203Z,98830.78
2022-12-03T19:00:35.922Z,98824.16
2022-12-03T19:05:07.853Z,98827.47
2022-12-03T19:07:14.110Z,98822.50
2022-12-03T19:09:20.213Z,98825.88
2022-12-03T19:11:25.682Z,98818.41
2022-12-03T19:13:33.232Z,98824.25
2022-12-03T19:15:40.124Z,98826.72
2022-12-03T19:17:45.457Z,98822.53
2022-12-03T19:19:50.397Z,98829.16
2022-12-03T19:21:55.511Z,98820.91
2022-12-03T19:24:24.301Z,98819.25
2022-12-03T19:26:28.011Z,98817.56
2022-12-03T19:28:36.398Z,98816.75
2022-12-03T19:30:41.388Z,98819.25
2022-12-03T19:32:46.499Z,98820.03
2022-12-03T19:34:51.516Z,98814.25
2022-12-03T19:36:56.501Z,98818.41
2022-12-03T19:39:03.270Z,98813.53
2022-12-03T19:41:11.527Z,98816.78
2022-12-03T19:43:16.791Z,98808.56
2022-12-03T19:45:24.363Z,98817.63
2022-12-03T19:47:30.168Z,98811.03
2022-12-03T19:49:35.940Z,98814.34
2022-12-03T19:51:41.021Z,98813.47
2022-12-03T19:53:46.584Z,98803.66
2022-12-03T19:55:51.538Z,98808.56
2022-12-03T19:57:56.784Z,98816.81
2022-12-03T20:00:02.226Z,98806.97
2022-12-03T20:02:20.014Z,98811.91
2022-12-03T20:04:25.003Z,98806.16
2022-12-03T20:06:33.711Z,98806.16
2022-12-03T20:08:39.838Z,98815.22
2022-12-03T20:10:45.559Z,98812.72
2022-12-03T20:12:50.528Z,98807.72
2022-12-03T20:14:55.522Z,98805.28
2022-12-03T20:17:00.551Z,98796.22
2022-12-03T20:19:11.173Z,98797.88
2022-12-03T20:21:18.990Z,98795.38
2022-12-03T20:23:23.967Z,98792.88
2022-12-03T20:25:28.946Z,98799.59
2022-12-03T20:27:34.629Z,98794.63
2022-12-03T20:29:39.703Z,98798.00
2022-12-03T20:31:45.158Z,98804.59
2022-12-03T20:33:59.962Z,98799.63
2022-12-03T20:36:08.292Z,98801.28
2022-12-03T20:38:13.380Z,98790.53
2022-12-03T20:40:18.596Z,98790.44
2022-12-03T20:42:23.547Z,98791.28
2022-12-03T20:44:28.533Z,98789.59
2022-12-03T20:46:35.348Z,98784.66
2022-12-03T20:48:41.387Z,98789.63
2022-12-03T20:50:46.405Z,98787.94
2022-12-03T20:53:22.735Z,98780.47
2022-12-03T20:55:19.340Z,98779.66
2022-12-03T20:57:24.305Z,98776.38
2022-12-03T20:59:29.582Z,98767.31
2022-12-03T21:01:36.073Z,98769.78
2022-12-03T21:03:42.769Z,98773.88
2022-12-03T21:05:48.053Z,98778.00
2022-12-03T21:07:56.106Z,98774.72
2022-12-03T21:10:01.247Z,98771.41
2022-12-03T21:12:06.800Z,98768.94
2022-12-03T21:14:13.627Z,98772.22
2022-12-03T21:16:39.488Z,98773.88
2022-12-03T21:18:48.022Z,98769.75
2022-12-03T21:20:53.386Z,98769.69
2022-12-03T21:23:00.923Z,98768.09
2022-12-03T21:25:06.094Z,98777.22
2022-12-03T21:27:11.042Z,98771.38
2022-12-03T21:29:16.054Z,98774.72
2022-12-03T21:31:25.603Z,98767.28
2022-12-03T21:33:31.316Z,98773.88
2022-12-03T21:35:39.239Z,98768.00
2022-12-03T21:37:44.597Z,98774.66
2022-12-03T21:39:52.327Z,98768.94
2022-12-03T21:42:18.629Z,98768.13
2022-12-03T21:44:24.799Z,98766.44
2022-12-03T21:47:09.877Z,98767.25
2022-12-03T21:48:57.039Z,98764.63
2022-12-03T21:51:03.700Z,98768.81
2022-12-03T21:53:09.196Z,98763.00
2022-12-03T21:55:16.875Z,98762.22
2022-12-03T21:57:22.310Z,98771.22
2022-12-03T21:59:27.662Z,98766.41
2022-12-03T22:01:33.212Z,98762.28
2022-12-03T22:03:38.294Z,98759.00
2022-12-03T22:05:43.806Z,98763.13
2022-12-03T22:07:49.882Z,98754.81
2022-12-03T22:09:55.245Z,98758.91
2022-12-03T22:12:03.249Z,98756.47
2022-12-03T22:14:09.876Z,98755.63
2022-12-03T22:16:19.457Z,98746.59
2022-12-03T22:18:24.627Z,98747.38
2022-12-03T22:20:30.235Z,98743.28
2022-12-03T22:22:35.990Z,98749.84
2022-12-03T22:24:41.484Z,98748.16
2022-12-03T22:26:47.473Z,98748.97
2022-12-03T22:28:55.363Z,98743.19
2022-12-03T22:31:00.543Z,98743.34
2022-12-03T22:33:06.056Z,98744.81
2022-12-03T22:35:12.873Z,98739.84
2022-12-03T22:37:18.034Z,98740.66
2022-12-03T22:39:23.723Z,98743.13
2022-12-03T22:41:28.723Z,98739.00
2022-12-03T22:43:33.704Z,98738.19
2022-12-03T22:45:42.028Z,98744.00
2022-12-03T22:47:46.993Z,98734.94
2022-12-03T22:49:52.634Z,98731.63
2022-12-03T22:51:57.866Z,98733.28
2022-12-03T22:54:04.074Z,98733.28
2022-12-03T22:56:09.613Z,98729.94
2022-12-03T22:58:15.334Z,98729.97
2022-12-03T23:00:32.307Z,98727.50
2022-12-03T23:02:41.266Z,98721.75
2022-12-03T23:04:46.858Z,98714.34
2022-12-03T23:06:54.530Z,98711.81
2022-12-03T23:09:01.148Z,98710.22
2022-12-03T23:11:06.094Z,98715.13
2022-12-03T23:13:12.050Z,98720.06
2022-12-03T23:15:17.179Z,98715.13
2022-12-03T23:17:22.123Z,98720.00
2022-12-03T23:19:30.043Z,98720.84
2022-12-03T23:21:37.584Z,98722.50
2022-12-03T23:23:42.748Z,98721.72
2022-12-03T23:25:47.930Z,98715.06
2022-12-03T23:27:52.919Z,98718.34
2022-12-03T23:29:58.965Z,98716.78
2022-12-03T23:32:04.216Z,98720.91
2022-12-03T23:34:09.238Z,98711.81
2022-12-03T23:36:18.306Z,98713.50
2022-12-03T23:38:24.104Z,98712.63
2022-12-03T23:40:29.506Z,98706.00
2022-12-03T23:42:34.484Z,98697.03
2022-12-03T23:44:39.487Z,98700.31
2022-12-03T23:46:45.936Z,98697.06
2022-12-03T23:48:52.679Z,98698.72
2022-12-03T23:50:57.776Z,98692.13
2022-12-03T23:53:05.716Z,98685.50
2022-12-03T23:55:11.828Z,98683.75
2022-12-03T23:57:18.642Z,98674.78
2022-12-03T23:59:23.658Z,98674.81
